NCAR-RAP Real-Time Weather Data

Output produced by METARs form (12 August 2020  18:50 UTC)
found at http://weather.rap.ucar.edu/surface/
 
KSTL 121751Z 13009KT 10SM FEW035 BKN080 BKN250 25/21 A3007 RMK AO2 LTG DSNT E AND SE RAB1657E12 SLP170 TCU DSNT W ACC SW P0000 60003 T02500206 10256 20233 50001
KSTL 121651Z 13006KT 10SM FEW010 BKN080 24/21 A3008 RMK AO2 LTG DSNT S RAE00 TSE01 SLP174 P0000 T02390206
KSTL 121607Z 12005KT 10SM FEW009 SCT020TCU BKN060 24/22 A3007 RMK AO2 LTG DSNT E-S RAE00 TSE01 TCU SW AND W P0000 T02440217
KSTL 121551Z 13010KT 8SM -TSRA SCT011 BKN018CB OVC065 24/22 A3008 RMK AO2 LTG DSNT E-S RAE31B41 TSB13 SLP174 OCNL LTGIC SE-S TS SE-S MOV SW P0001 T02390222
KSTL 121542Z 12009KT 10SM -TSRA SCT009 BKN018CB BKN070 24/22 A3008 RMK AO2 LTG DSNT E-S RAE31B41 TSB13 OCNL LTGIC SE-S TS SE-S MOV SW P0000 T02440222
KSTL 121532Z 12013KT 9SM TS BKN009 BKN015CB OVC070 25/23 A3008 RMK AO2 LTG DSNT E-S RAE31 TSB13 OCNL LTGIC E-S TS E-S MOV SW P0000 T02500228
KSTL 121522Z 10008KT 9SM -TSRA BKN018CB OVC075 25/23 A3008 RMK AO2 LTG DSNT E AND SE TSB13 OCNL LTGIC E-S TS E-S MOV SW P0000 T02500228
KSTL 121514Z 11007KT 10SM -TSRA FEW010 SCT035CB BKN075 25/23 A3007 RMK AO2 LTG DSNT E AND SE TSB13 OCNL LTGIC SE-S TS SE-S MOV SW P0000 T02500228
KSTL 121451Z 11005KT 7SM -RA FEW015 SCT035 BKN060 25/23 A3006 RMK AO2 LTG DSNT E AND SE RAB22 SLP169 CB DSNT E-SE MOV SW P0002 60002 T02500228 50006
KSTL 121351Z 11005KT 10SM FEW015 BKN050 BKN150 25/22 A3006 RMK AO2 SLP168 ACC W T02500222
KSTL 121251Z 07008KT 10SM FEW015 BKN050 BKN100 24/22 A3007 RMK AO2 SLP169 ACC ALQDS T02440222
KSTL 121151Z 08004KT 10SM SCT060 BKN100 BKN200 24/22 A3005 RMK AO2 SLP162 ACC NW-NE AND OHD T02440222 10256 20239 53005
KSTL 121051Z 06005KT 10SM BKN055 24/22 A3003 RMK AO2 SLP157 T02440222
KSTL 120951Z 09004KT 10SM FEW017 SCT070 BKN220 24/22 A3003 RMK AO2 SLP157 T02440222
KSTL 120942Z COR 11003KT 10SM FEW017 SCT110 BKN220 24/22 A3003 RMK AO2 T02440222
KSTL 120911Z 11004KT 10SM BKN018 OVC055 25/22 A3003 RMK AO2 T02500222
KSTL 120851Z 09003KT 10SM OVC055 25/22 A3003 RMK AO2 SLP157 T02500222 53009
KSTL 120751Z 14006KT 10SM BKN100 OVC210 26/22 A3002 RMK AO2 SLP152 T02560222
KSTL 120651Z 00000KT 10SM BKN090 OVC200 25/22 A3002 RMK AO2 SLP152 T02500222
KSTL 120551Z 12005KT 10SM FEW025 SCT150 OVC200 26/22 A3000 RMK AO2 SLP148 T02560222 10283 20256 402890211 58003
KSTL 120451Z 11005KT 10SM FEW027 OVC150 26/22 A3001 RMK AO2 SLP150 T02560222
KSTL 120351Z 13006KT 10SM BKN080 OVC150 26/22 A3002 RMK AO2 SLP153 T02610222
KSTL 120251Z 09005KT 10SM BKN080 OVC150 26/22 A3001 RMK AO2 SLP152 T02560222 53010
KSTL 120151Z 00000KT 10SM FEW027 BKN150 OVC200 27/22 A2999 RMK AO2 SLP145 T02670217
KSTL 120051Z 01005KT 10SM FEW028 BKN150 OVC200 27/22 A2998 RMK AO2 SLP142 T02720217
KSTL 112351Z 00000KT 10SM SCT029 OVC150 28/22 A2998 RMK AO2 SLP141 T02830222 10289 20272 58003
KSTL 112340Z 05004KT 10SM SCT029 OVC150 28/22 A2998 RMK AO2 T02830222
KSTL 112251Z VRB03KT 10SM BKN029 OVC200 28/22 A2999 RMK AO2 SLP144 T02830217
KSTL 112151Z 08006KT 10SM BKN029 OVC250 28/22 A3000 RMK AO2 SLP147 T02830222
KSTL 112116Z 11006KT 10SM BKN027 OVC250 28/22 A2999 RMK AO2 T02830222
KSTL 112051Z VRB03KT 10SM SCT026 OVC250 28/22 A2999 RMK AO2 SLP145 T02830217 56007
KSTL 111951Z 12005KT 10SM SCT024 BKN250 28/22 A3000 RMK AO2 SLP149 T02780217
KSTL 111851Z 03004KT 10SM SCT021 BKN250 28/22 A3000 RMK AO2 SLP148 T02780217
KSTL 111751Z 00000KT 10SM SCT019 BKN250 27/21 A3001 RMK AO2 SLP152 T02720211 10283 20217 58004
KSTL 111651Z 33006KT 10SM SCT018 SCT065 BKN250 27/22 A3002 RMK AO2 SLP155 T02720217
KSTL 111551Z 00000KT 10SM FEW012 BKN060 BKN250 26/21 A3002 RMK AO2 SLP157 T02560206
KSTL 111451Z 00000KT 10SM FEW011 FEW070 BKN250 24/21 A3003 RMK AO2 SLP159 T02390206 51010
KSTL 111351Z 00000KT 10SM FEW008 SCT070 BKN250 24/21 A3002 RMK AO2 SLP156 T02390206
KSTL 111325Z 28003KT 10SM SCT008 BKN070 BKN250 23/21 A3002 RMK AO2 T02330206
KSTL 111251Z 26005KT 10SM BKN008 BKN065 OVC250 23/20 A3002 RMK AO2 SLP157 T02280200
KSTL 111228Z 25004KT 10SM BKN007 BKN085 OVC250 23/20 A3000 RMK AO2 ACC SW-W T02280200
KSTL 111151Z 19004KT 6SM BR SCT007 BKN100 OVC250 22/19 A3000 RMK AO2 SLP149 ACC SW-W 70075 T02170194 10222 20211 53004
KSTL 111134Z 18005KT 6SM BR SCT007 BKN100 OVC250 22/19 A2999 RMK AO2 ACC SW T02170194
KSTL 111051Z 12004KT 8SM OVC008 21/20 A2998 RMK AO2 SLP143 T02110200
KSTL 110959Z 08003KT 10SM BKN005 BKN250 21/19 A2997 RMK AO2 T02110194
KSTL 110951Z 00000KT 10SM SCT005 SCT250 22/19 A2997 RMK AO2 SLP136 T02170194
KSTL 110934Z 07003KT 10SM FEW006 SCT015 22/19 A2998 RMK AO2 T02170194
KSTL 110851Z 00000KT 10SM FEW015 BKN250 22/19 A2999 RMK AO2 SLP140 T02170194 53001
KSTL 110826Z 00000KT 10SM SCT016 SCT045 BKN250 22/19 A2999 RMK AO2 OCNL LTGICCCCG DSNT S CB DSNT S MOV E T02170194
KSTL 110751Z 02003KT 10SM FEW009 OVC015 22/20 A2998 RMK AO2 SLP138 T02220200
KSTL 110738Z 04004KT 10SM FEW009 OVC015 22/20 A2999 RMK AO2 T02170200
KSTL 110651Z 03005KT 10SM OVC013 22/20 A2999 RMK AO2 SLP140 T02220200
KSTL 110636Z 00000KT 10SM OVC013 22/19 A2998 RMK AO2 T02220194
KSTL 110616Z 00000KT 10SM OVC011 22/20 A2999 RMK AO2 T02220200
KSTL 110551Z 00000KT 10SM BKN008 22/20 A2998 RMK AO2 SLP139 60006 T02220200 10222 20211 403610211 53015
KSTL 110451Z 16005KT 10SM OVC007 22/20 A2997 RMK AO2 SLP133 T02170200
KSTL 110351Z 17006KT 10SM OVC008 22/19 A2995 RMK AO2 SLP126 T02170194
KSTL 110306Z 13007KT 10SM BKN008 OVC150 22/20 A2994 RMK AO2 T02170200
KSTL 110251Z 13007KT 10SM SCT007 BKN200 22/20 A2994 RMK AO2 SLP126 60006 T02170200 55034
KSTL 110219Z 18013G24KT 10SM FEW006 22/20 A2993 RMK AO2 T02170200
KSTL 110151Z 15012KT 10SM SCT085 BKN120 BKN200 22/19 A2992 RMK AO2 RAE09 TSE01 SLP120 OCNL LTGICCC DSNT E-SE CB DSNT E-SE MOV E P0001 T02170194
KSTL 110102Z 06009KT 10SM -RA FEW030 BKN120 BKN200 21/19 A2998 RMK AO2 LTG DSNT NE-S TSE01 OCNL LTGICCC DSNT E-SE CB DSNT E-SE MOV E P0001 T02110194
KSTL 110051Z 06011KT 10SM -TSRA FEW030CB BKN120 OVC200 21/19 A2999 RMK AO2 LTG DSNT E-S SLP144 OCNL LTGICCG NE-S TS NE-S MOV E P0005 T02110194
KSTL 102351Z 03010KT 7SM -TSRA FEW007 SCT021CB OVC030 21/19 A3004 RMK AO2 PK WND 35045/2300 WSHFT 2238 LTG DSNT ALQDS SLP162 OCNL LTGICCG NE-S TS NE-S MOV E P0069 60069 T02110194 10361 20211 53045
KSTL 102340Z 02010G18KT 4SM R30R/5000VP6000FT TSRA BR FEW007 SCT021CB OVC030 21/19 A3007 RMK AO2 PK WND 35045/2300 WSHFT 2238 LTG DSNT ALQDS OCNL LTGICCG ALQDS TS ALQDS MOV E P0068 T02110194
KSTL 102320Z 33017G31KT 2SM R30R/5000VP6000FT +TSRA BR FEW007 BKN019CB OVC026 21/19 A3008 RMK AO2 PK WND 35045/2300 WSHFT 2238 LTG DSNT ALQDS OCNL LTGICCG ALQDS TS ALQDS MOV E P0043 T02110194
KSTL 102305Z 01026G45KT 1SM R30R/2600VP6000FT +TSRA BR SCT015 BKN026CB OVC095 22/19 A2999 RMK AO2 PK WND 35045/2300 WSHFT 2238 LTG DSNT ALQDS OCNL LTGICCG ALQDS TS ALQDS MOV E P0022 T02170194
KSTL 102302Z 36025G45KT 2SM R30R/2600VP6000FT +TSRA SCT031CB BKN045 OVC100 22/19 A2999 RMK AO2 PK WND 35045/2300 WSHFT 2238 LTG DSNT ALQDS OCNL LTGICCG ALQDS TS ALQDS MOV E P0019 T02220194
KSTL 102254Z 36030G47KT 4SM -TSRA SCT031CB BKN045 BKN100 24/19 A3000 RMK AO2 PK WND 01045/2253 WSHFT 2238 LTG DSNT ALQDS OCNL LTGICCG ALQDS TS ALQDS MOV E P0000 T02440189
KSTL 102251Z 35026G47KT 8SM -TSRA FEW033CB SCT045 BKN100 OVC250 26/19 A3001 RMK AO2 PK WND 36047/2251 LTG DSNT ALQDS RAB41 TSB42 PRESRR SLP150 FRQ LTGICCG SW-N TS SW-N MOV E P0000 T02560189
KSTL 102242Z 34019G34KT 10SM -TSRA SQ FEW050CB SCT080 BKN100 OVC250 28/21 A2995 RMK AO2 PK WND 35034/2239 LTG DSNT ALQDS RAB41 TSB42 PRESRR FRQ LTGICCG SW-N TS SW-N MOV E P0000 T02830206
KSTL 102151Z 26008KT 10SM FEW050 BKN120 BKN250 34/23 A2992 RMK AO2 LTG DSNT SW SLP115 CB DSNT SW-N MOV E T03390233
KSTL 102051Z 24009KT 10SM FEW045 SCT060 BKN120 BKN250 35/25 A2990 RMK AO2 PRESFR SLP110 CB DSNT NW-N MOV E T03500250 58021
KSTL 101951Z 22010KT 10SM SCT044 BKN060 BKN140 BKN250 34/23 A2994 RMK AO2 SLP124 T03440233
KSTL 101851Z 22007G18KT 10SM FEW046 SCT140 SCT250 36/23 A2995 RMK AO2 SLP126 T03560228